Time;durP1;ratioP1;P1;durP2;ratioP2;P2;SDS_P1;SDS_P2;PMS_P1;PMS_P2;Temp;Humidity;BMP_temperature;BMP_pressure;BME280_temperature;BME280_humidity;BME280_pressure;Samples;Min_cycle;Max_cycle;Signal;HPM_P1;HPM_P2
2023/09/30 00:00:14;;;;;;;3.78;3.63;;;;;;;;;;4149533;28;20046;-66
2023/09/30 00:02:16;;;;;;;4.07;3.83;;;;;;;;;;4148973;28;20053;-66
2023/09/30 00:04:20;;;;;;;3.90;3.72;;;;;;;;;;4149527;28;20034;-66
2023/09/30 00:06:23;;;;;;;3.63;3.53;;;;;;;;;;4149433;28;20033;-66
2023/09/30 00:08:27;;;;;;;4.25;3.95;;;;;;;;;;4149262;28;20092;-66
2023/09/30 00:10:30;;;;;;;4.70;4.55;;;;;;;;;;4149388;28;20401;-66
2023/09/30 00:12:33;;;;;;;4.45;4.00;;;;;;;;;;4149333;28;20042;-66
2023/09/30 00:14:37;;;;;;;5.97;5.78;;;;;;;;;;4149362;28;20042;-66
2023/09/30 00:16:40;;;;;;;6.47;6.18;;;;;;;;;;4149361;28;20042;-66
2023/09/30 00:18:44;;;;;;;8.02;7.40;;;;;;;;;;4148936;28;20112;-66
2023/09/30 00:20:46;;;;;;;7.78;7.50;;;;;;;;;;4148876;28;20049;-66
2023/09/30 00:22:48;;;;;;;9.95;9.38;;;;;;;;;;4148910;28;20046;-66
2023/09/30 00:24:49;;;;;;;8.57;8.30;;;;;;;;;;4148907;28;20383;-66
2023/09/30 00:26:51;;;;;;;9.52;9.05;;;;;;;;;;4148931;28;20561;-66
2023/09/30 00:28:53;;;;;;;8.25;8.15;;;;;;;;;;4154766;28;20403;-66
2023/09/30 00:30:55;;;;;;;9.57;9.27;;;;;;;;;;4152938;28;20038;-66
2023/09/30 00:32:56;;;;;;;10.67;9.63;;;;;;;;;;4132554;28;20050;-66
2023/09/30 00:34:59;;;;;;;10.30;9.87;;;;;;;;;;4132604;28;20769;-66
2023/09/30 00:37:00;;;;;;;10.23;9.90;;;;;;;;;;4132622;28;20046;-66
2023/09/30 00:39:02;;;;;;;9.97;9.57;;;;;;;;;;4132215;28;20410;-66
2023/09/30 00:41:03;;;;;;;10.30;9.50;;;;;;;;;;4131712;28;20498;-66
2023/09/30 00:43:05;;;;;;;8.87;8.73;;;;;;;;;;4132295;28;20816;-66
2023/09/30 00:45:09;;;;;;;8.57;8.20;;;;;;;;;;4145711;28;20486;-66
2023/09/30 00:47:11;;;;;;;8.18;7.88;;;;;;;;;;4148358;28;20092;-67
2023/09/30 00:49:13;;;;;;;9.20;8.65;;;;;;;;;;4148801;28;20076;-66
2023/09/30 00:51:15;;;;;;;9.13;8.55;;;;;;;;;;4148555;28;20042;-66
2023/09/30 00:53:17;;;;;;;6.15;5.85;;;;;;;;;;4148756;28;20046;-66
2023/09/30 00:55:19;;;;;;;5.60;5.28;;;;;;;;;;4148423;28;20046;-66
2023/09/30 00:57:21;;;;;;;7.18;6.05;;;;;;;;;;4148344;28;20505;-66
2023/09/30 00:59:26;;;;;;;5.35;5.25;;;;;;;;;;4148345;28;20120;-66
2023/09/30 01:01:28;;;;;;;4.40;4.20;;;;;;;;;;4148033;28;20069;-65
2023/09/30 01:03:30;;;;;;;5.80;5.50;;;;;;;;;;4148412;28;20065;-65
2023/09/30 01:05:32;;;;;;;5.47;5.28;;;;;;;;;;4148607;28;20042;-66
2023/09/30 01:07:34;;;;;;;10.37;5.00;;;;;;;;;;4148297;28;20121;-65
2023/09/30 01:09:36;;;;;;;5.00;4.70;;;;;;;;;;4148279;28;20136;-66
2023/09/30 01:11:40;;;;;;;9.40;4.60;;;;;;;;;;4148249;28;20069;-66
2023/09/30 01:13:43;;;;;;;6.00;4.18;;;;;;;;;;4148165;28;20114;-66
2023/09/30 01:15:44;;;;;;;5.30;5.20;;;;;;;;;;4148069;28;20072;-67
2023/09/30 01:17:46;;;;;;;4.63;4.53;;;;;;;;;;4146773;28;20524;-66
2023/09/30 01:19:49;;;;;;;5.73;4.60;;;;;;;;;;4148049;28;20045;-66
2023/09/30 01:21:56;;;;;;;5.10;4.80;;;;;;;;;;4148035;28;20038;-66
2023/09/30 01:23:57;;;;;;;3.75;3.45;;;;;;;;;;4147986;28;20716;-66
2023/09/30 01:26:03;;;;;;;4.53;3.95;;;;;;;;;;4148244;28;20049;-66
2023/09/30 01:28:07;;;;;;;4.03;3.92;;;;;;;;;;4161548;28;20053;-65
2023/09/30 01:30:10;;;;;;;6.80;4.13;;;;;;;;;;4131686;28;20050;-66
2023/09/30 01:32:13;;;;;;;4.63;4.53;;;;;;;;;;4131739;28;20083;-66
2023/09/30 01:34:15;;;;;;;5.88;5.07;;;;;;;;;;4131867;28;20057;-66
2023/09/30 01:36:17;;;;;;;6.55;6.38;;;;;;;;;;4131689;28;20075;-66
2023/09/30 01:38:19;;;;;;;8.52;8.32;;;;;;;;;;4131801;28;20049;-66
2023/09/30 01:40:22;;;;;;;10.15;9.93;;;;;;;;;;4136437;28;20403;-66
2023/09/30 01:42:23;;;;;;;10.27;10.07;;;;;;;;;;4147816;28;20060;-66
2023/09/30 01:44:25;;;;;;;9.88;9.38;;;;;;;;;;4147780;28;20042;-65
2023/09/30 01:46:27;;;;;;;9.50;8.95;;;;;;;;;;4147495;28;20453;-66
2023/09/30 01:48:29;;;;;;;9.20;8.17;;;;;;;;;;4147757;28;20049;-66
2023/09/30 01:50:31;;;;;;;10.30;9.73;;;;;;;;;;4147772;28;20377;-66
2023/09/30 01:52:33;;;;;;;10.05;9.55;;;;;;;;;;4147395;28;20291;-65
2023/09/30 01:54:35;;;;;;;10.52;10.13;;;;;;;;;;4147725;28;20513;-66
2023/09/30 01:56:36;;;;;;;9.18;8.88;;;;;;;;;;4147703;28;20124;-66
2023/09/30 01:58:38;;;;;;;8.68;8.57;;;;;;;;;;4147689;28;20104;-66
2023/09/30 02:00:40;;;;;;;8.97;8.70;;;;;;;;;;4147446;28;20038;-66
2023/09/30 02:02:42;;;;;;;7.95;7.85;;;;;;;;;;4147467;28;20293;-66
2023/09/30 02:04:43;;;;;;;7.18;7.07;;;;;;;;;;4147650;28;20038;-67
2023/09/30 02:06:45;;;;;;;8.30;7.97;;;;;;;;;;4147633;28;20048;-66
2023/09/30 02:08:47;;;;;;;8.13;7.55;;;;;;;;;;4147501;28;20285;-66
2023/09/30 02:10:48;;;;;;;6.63;6.38;;;;;;;;;;4147558;28;20034;-66
2023/09/30 02:12:50;;;;;;;8.55;6.90;;;;;;;;;;4147529;28;20121;-65
2023/09/30 02:14:52;;;;;;;6.15;5.85;;;;;;;;;;4147425;28;20410;-66
2023/09/30 02:16:53;;;;;;;6.55;6.22;;;;;;;;;;4147454;28;20490;-66
2023/09/30 02:18:55;;;;;;;5.10;4.90;;;;;;;;;;4147319;28;20120;-66
2023/09/30 02:20:57;;;;;;;5.30;5.20;;;;;;;;;;4147434;28;20120;-66
2023/09/30 02:23:02;;;;;;;4.38;4.28;;;;;;;;;;4149969;28;20342;-66
2023/09/30 02:25:07;;;;;;;5.57;5.45;;;;;;;;;;4163709;28;20045;-66
2023/09/30 02:27:08;;;;;;;5.97;5.63;;;;;;;;;;4163761;28;20144;-65
2023/09/30 02:29:10;;;;;;;4.97;4.87;;;;;;;;;;4160827;28;20587;-66
2023/09/30 02:31:12;;;;;;;4.85;4.75;;;;;;;;;;4159669;28;20054;-65
2023/09/30 02:33:14;;;;;;;6.10;5.90;;;;;;;;;;4147317;28;20049;-66
2023/09/30 02:35:16;;;;;;;5.88;5.57;;;;;;;;;;4147347;28;20074;-66
2023/09/30 02:37:18;;;;;;;6.18;5.88;;;;;;;;;;4136799;28;20061;-66
2023/09/30 02:39:19;;;;;;;6.10;5.80;;;;;;;;;;4131014;28;20446;-66
2023/09/30 02:41:21;;;;;;;5.67;5.57;;;;;;;;;;4131067;28;20538;-66
2023/09/30 02:43:23;;;;;;;6.07;5.73;;;;;;;;;;4131072;28;20522;-65
2023/09/30 02:45:24;;;;;;;5.50;5.30;;;;;;;;;;4131013;28;20289;-66
2023/09/30 02:47:26;;;;;;;6.50;6.20;;;;;;;;;;4142931;28;20153;-66
2023/09/30 02:49:34;;;;;;;6.10;5.60;;;;;;;;;;4147121;28;20140;-65
2023/09/30 02:51:36;;;;;;;6.28;5.70;;;;;;;;;;4146237;28;20050;-66
2023/09/30 02:53:37;;;;;;;5.43;5.27;;;;;;;;;;4147258;28;20046;-65
2023/09/30 02:55:39;;;;;;;5.65;5.13;;;;;;;;;;4147095;28;20034;-65
2023/09/30 02:57:41;;;;;;;6.50;6.40;;;;;;;;;;4147135;28;20449;-66
2023/09/30 02:59:44;;;;;;;7.88;7.30;;;;;;;;;;4147074;28;20046;-66
2023/09/30 03:01:46;;;;;;;6.53;6.32;;;;;;;;;;4146879;28;20046;-66
2023/09/30 03:03:48;;;;;;;6.25;5.60;;;;;;;;;;4147115;28;20522;-66
2023/09/30 03:05:50;;;;;;;5.50;5.35;;;;;;;;;;4149747;28;20065;-66
2023/09/30 03:07:51;;;;;;;6.45;6.10;;;;;;;;;;4150083;28;20116;-66
2023/09/30 03:09:54;;;;;;;6.13;6.03;;;;;;;;;;4150182;28;20041;-66
2023/09/30 03:11:59;;;;;;;6.45;6.22;;;;;;;;;;4150330;28;20121;-66
2023/09/30 03:14:00;;;;;;;5.63;5.50;;;;;;;;;;4150057;28;20037;-66
2023/09/30 03:16:02;;;;;;;6.10;5.77;;;;;;;;;;4150036;28;20042;-65
2023/09/30 03:18:04;;;;;;;5.78;5.35;;;;;;;;;;4150033;28;20132;-66
2023/09/30 03:20:11;;;;;;;5.18;5.07;;;;;;;;;;4159329;28;20056;-66
2023/09/30 03:22:13;;;;;;;6.18;5.80;;;;;;;;;;4166444;28;20104;-66
2023/09/30 03:24:14;;;;;;;7.33;7.23;;;;;;;;;;4166243;28;20037;-66
2023/09/30 03:26:16;;;;;;;9.73;9.53;;;;;;;;;;4166315;28;20284;-66
2023/09/30 03:28:17;;;;;;;11.40;11.00;;;;;;;;;;4166273;28;20053;-66
2023/09/30 03:30:20;;;;;;;13.43;13.07;;;;;;;;;;4166264;28;20069;-66
2023/09/30 03:32:22;;;;;;;15.55;14.57;;;;;;;;;;4164843;28;20099;-66
2023/09/30 03:34:23;;;;;;;14.48;14.13;;;;;;;;;;4149756;28;20124;-66
2023/09/30 03:36:25;;;;;;;15.97;15.30;;;;;;;;;;4150004;28;20407;-66
2023/09/30 03:38:26;;;;;;;14.23;13.98;;;;;;;;;;4149667;28;20088;-67
2023/09/30 03:40:33;;;;;;;14.43;13.80;;;;;;;;;;4149478;28;20053;-66
2023/09/30 03:42:34;;;;;;;15.88;15.38;;;;;;;;;;4149665;28;20403;-66
2023/09/30 03:44:36;;;;;;;15.90;15.40;;;;;;;;;;4149626;28;20077;-66
2023/09/30 03:46:38;;;;;;;16.08;15.57;;;;;;;;;;4149382;28;20125;-66
2023/09/30 03:48:39;;;;;;;15.73;15.20;;;;;;;;;;4149710;28;20038;-66
2023/09/30 03:50:41;;;;;;;16.60;16.15;;;;;;;;;;4149615;28;20053;-66
2023/09/30 03:52:46;;;;;;;17.75;17.13;;;;;;;;;;4149389;28;20103;-66
2023/09/30 03:54:49;;;;;;;16.60;16.27;;;;;;;;;;4148307;28;20042;-66
2023/09/30 03:56:50;;;;;;;18.17;17.43;;;;;;;;;;4149483;28;20133;-67
2023/09/30 03:58:52;;;;;;;17.30;16.25;;;;;;;;;;4149387;28;20080;-66
2023/09/30 04:00:54;;;;;;;17.75;17.27;;;;;;;;;;4149191;28;20075;-66
2023/09/30 04:02:58;;;;;;;16.10;15.57;;;;;;;;;;4149394;28;20042;-66
2023/09/30 04:05:03;;;;;;;14.75;14.45;;;;;;;;;;4149207;28;20045;-66
2023/09/30 04:07:09;;;;;;;16.65;16.05;;;;;;;;;;4149186;28;20099;-66
2023/09/30 04:09:11;;;;;;;13.27;12.80;;;;;;;;;;4149132;28;20058;-66
2023/09/30 04:11:17;;;;;;;15.63;14.87;;;;;;;;;;4149230;28;20125;-66
2023/09/30 04:13:21;;;;;;;15.73;15.00;;;;;;;;;;4149121;28;20339;-66
2023/09/30 04:15:22;;;;;;;14.73;14.43;;;;;;;;;;4150588;28;20057;-66
2023/09/30 04:17:24;;;;;;;15.03;14.73;;;;;;;;;;4165546;28;20041;-66
2023/09/30 04:19:26;;;;;;;15.17;14.73;;;;;;;;;;4165416;28;20288;-66
2023/09/30 04:21:29;;;;;;;13.40;12.85;;;;;;;;;;4165366;28;20583;-66
2023/09/30 04:23:31;;;;;;;15.88;14.95;;;;;;;;;;4165292;28;20068;-66
2023/09/30 04:25:33;;;;;;;17.75;17.13;;;;;;;;;;4165281;28;20095;-66
2023/09/30 04:27:35;;;;;;;18.35;17.50;;;;;;;;;;4165194;28;20494;-66
2023/09/30 04:29:39;;;;;;;17.35;16.60;;;;;;;;;;4155822;28;20101;-66
2023/09/30 04:31:42;;;;;;;18.30;18.00;;;;;;;;;;4148868;28;20619;-66
2023/09/30 04:33:43;;;;;;;17.27;16.67;;;;;;;;;;4148799;28;20038;-66
2023/09/30 04:35:45;;;;;;;17.63;16.88;;;;;;;;;;4148821;28;20049;-66
2023/09/30 04:37:47;;;;;;;17.13;16.50;;;;;;;;;;4148756;28;20042;-66
2023/09/30 04:39:48;;;;;;;16.83;16.35;;;;;;;;;;4148355;28;20415;-66
2023/09/30 04:41:50;;;;;;;17.10;16.30;;;;;;;;;;4148688;28;20402;-66
2023/09/30 04:43:52;;;;;;;18.98;18.38;;;;;;;;;;4148910;28;20788;-66
2023/09/30 04:45:56;;;;;;;18.90;18.20;;;;;;;;;;4146703;28;20450;-67
2023/09/30 04:47:58;;;;;;;18.10;17.42;;;;;;;;;;4140410;28;20120;-67
2023/09/30 04:50:03;;;;;;;19.25;18.35;;;;;;;;;;4148742;28;20056;-66
2023/09/30 04:52:07;;;;;;;18.85;18.27;;;;;;;;;;4148803;28;20494;-66
2023/09/30 04:54:10;;;;;;;20.02;19.25;;;;;;;;;;4148512;28;20060;-66
2023/09/30 04:56:11;;;;;;;;;;;;;;;;;;4149192;28;20046;-67
2023/09/30 04:58:13;;;;;;;19.58;18.88;;;;;;;;;;4150409;28;20313;-67
2023/09/30 05:00:21;;;;;;;20.50;19.52;;;;;;;;;;4149354;28;20052;-66
2023/09/30 05:02:23;;;;;;;17.92;17.15;;;;;;;;;;4148199;28;20081;-67
2023/09/30 05:04:25;;;;;;;18.52;17.70;;;;;;;;;;4148578;28;20080;-66
2023/09/30 05:06:27;;;;;;;17.77;17.00;;;;;;;;;;4148576;28;20133;-66
2023/09/30 05:08:29;;;;;;;20.13;18.95;;;;;;;;;;4148222;28;20048;-67
2023/09/30 05:10:30;;;;;;;18.80;18.20;;;;;;;;;;4142125;28;20049;-68
2023/09/30 05:12:33;;;;;;;19.37;18.70;;;;;;;;;;4142145;28;20038;-68
2023/09/30 05:14:35;;;;;;;18.05;17.60;;;;;;;;;;4148218;28;20058;-68
2023/09/30 05:16:37;;;;;;;18.17;17.67;;;;;;;;;;4146984;28;20478;-68
2023/09/30 05:18:38;;;;;;;17.67;17.38;;;;;;;;;;4146759;28;20049;-68
2023/09/30 05:20:40;;;;;;;18.58;17.92;;;;;;;;;;4146869;28;20568;-68
2023/09/30 05:22:45;;;;;;;19.13;18.05;;;;;;;;;;4148115;28;20100;-68
2023/09/30 05:24:47;;;;;;;20.02;19.35;;;;;;;;;;4147958;28;20133;-68
2023/09/30 05:26:49;;;;;;;19.25;18.40;;;;;;;;;;4147996;28;20038;-68
2023/09/30 05:28:51;;;;;;;19.75;18.52;;;;;;;;;;4147573;28;20092;-68
2023/09/30 05:30:53;;;;;;;23.30;22.15;;;;;;;;;;4147986;28;20121;-68
2023/09/30 05:32:54;;;;;;;24.13;22.50;;;;;;;;;;4148059;28;20124;-68
2023/09/30 05:34:57;;;;;;;20.27;19.52;;;;;;;;;;4147875;28;20346;-68
2023/09/30 05:36:59;;;;;;;20.60;19.67;;;;;;;;;;4148000;28;20073;-68
2023/09/30 05:39:01;;;;;;;22.15;21.40;;;;;;;;;;4147706;28;20046;-69
2023/09/30 05:41:02;;;;;;;22.43;21.37;;;;;;;;;;4147826;28;20042;-62
2023/09/30 05:43:05;;;;;;;22.25;21.42;;;;;;;;;;4145190;28;20322;-62
2023/09/30 05:45:08;;;;;;;20.52;19.88;;;;;;;;;;4137749;28;20038;-62
2023/09/30 05:47:10;;;;;;;19.60;18.77;;;;;;;;;;4147540;28;20088;-62
2023/09/30 05:49:13;;;;;;;18.83;17.77;;;;;;;;;;4147663;28;20783;-62
2023/09/30 05:51:15;;;;;;;18.42;17.42;;;;;;;;;;4147324;28;20417;-62
2023/09/30 05:53:16;;;;;;;16.73;16.30;;;;;;;;;;4147913;28;20064;-62
2023/09/30 05:55:22;;;;;;;15.88;15.35;;;;;;;;;;4147708;28;20129;-62
2023/09/30 05:57:23;;;;;;;15.35;14.98;;;;;;;;;;4146993;28;20042;-62
2023/09/30 05:59:25;;;;;;;15.30;14.83;;;;;;;;;;4145181;28;20038;-62
2023/09/30 06:01:27;;;;;;;14.48;13.73;;;;;;;;;;4146665;28;20054;-62
2023/09/30 06:03:29;;;;;;;16.70;16.38;;;;;;;;;;4144718;28;20038;-61
2023/09/30 06:05:32;;;;;;;17.87;17.43;;;;;;;;;;4147470;28;20414;-62
2023/09/30 06:07:33;;;;;;;16.85;16.45;;;;;;;;;;4141406;28;20069;-62
2023/09/30 06:09:35;;;;;;;17.93;17.43;;;;;;;;;;4142829;28;20041;-62
2023/09/30 06:11:37;;;;;;;17.88;16.75;;;;;;;;;;4147331;28;20048;-62
2023/09/30 06:13:38;;;;;;;17.30;16.77;;;;;;;;;;4147424;28;20077;-62
2023/09/30 06:15:41;;;;;;;18.25;17.75;;;;;;;;;;4147479;28;20589;-62
2023/09/30 06:17:43;;;;;;;18.75;17.90;;;;;;;;;;4147419;28;20133;-62
2023/09/30 06:19:47;;;;;;;17.40;16.95;;;;;;;;;;4145822;28;20050;-62
2023/09/30 06:21:50;;;;;;;17.73;17.33;;;;;;;;;;4147188;28;20100;-62
2023/09/30 06:23:51;;;;;;;15.93;15.48;;;;;;;;;;4138938;28;20066;-62
2023/09/30 06:25:53;;;;;;;16.65;16.20;;;;;;;;;;4144057;28;20145;-62
2023/09/30 06:27:55;;;;;;;16.40;15.93;;;;;;;;;;4145956;28;20759;-62
2023/09/30 06:29:57;;;;;;;18.60;17.50;;;;;;;;;;4161589;28;20506;-62
2023/09/30 06:31:58;;;;;;;16.85;16.13;;;;;;;;;;4163674;28;20148;-62
2023/09/30 06:34:00;;;;;;;14.73;13.85;;;;;;;;;;4163774;28;20049;-62
2023/09/30 06:36:02;;;;;;;13.60;13.23;;;;;;;;;;4163898;28;20091;-62
2023/09/30 06:38:06;;;;;;;17.02;16.13;;;;;;;;;;4156706;28;20765;-63
2023/09/30 06:40:09;;;;;;;17.35;16.00;;;;;;;;;;4147233;28;20037;-62
2023/09/30 06:42:10;;;;;;;;;;;;;;;;;;4149698;28;20045;-63
2023/09/30 06:44:12;;;;;;;15.75;15.15;;;;;;;;;;4146134;28;19922;-63
2023/09/30 06:46:14;;;;;;;17.02;16.15;;;;;;;;;;4149651;28;20545;-62
2023/09/30 06:48:16;;;;;;;14.97;14.23;;;;;;;;;;4149497;28;20034;-62
2023/09/30 06:50:17;;;;;;;12.97;12.67;;;;;;;;;;4147770;28;20034;-62
2023/09/30 06:52:19;;;;;;;13.48;12.98;;;;;;;;;;4149473;28;20280;-62
2023/09/30 06:54:21;;;;;;;12.63;12.25;;;;;;;;;;4148773;28;20129;-62
2023/09/30 06:56:23;;;;;;;11.48;11.00;;;;;;;;;;4148734;28;20065;-62
2023/09/30 06:58:24;;;;;;;12.63;12.27;;;;;;;;;;4148090;28;20134;-62
2023/09/30 07:00:26;;;;;;;11.15;10.45;;;;;;;;;;4147190;28;20498;-62
2023/09/30 07:02:28;;;;;;;9.05;8.90;;;;;;;;;;4148876;28;20534;-62
2023/09/30 07:04:30;;;;;;;10.13;9.98;;;;;;;;;;4150167;28;20038;-62
2023/09/30 07:06:32;;;;;;;10.30;9.38;;;;;;;;;;4142648;28;20038;-62
2023/09/30 07:08:34;;;;;;;8.03;7.70;;;;;;;;;;4143477;28;20395;-62
2023/09/30 07:10:35;;;;;;;8.43;7.83;;;;;;;;;;4150103;28;20058;-63
2023/09/30 07:12:37;;;;;;;8.20;7.63;;;;;;;;;;4146495;28;20050;-64
2023/09/30 07:14:39;;;;;;;8.20;7.70;;;;;;;;;;4146230;28;20046;-64
2023/09/30 07:16:40;;;;;;;10.77;5.78;;;;;;;;;;4148092;28;20096;-63
2023/09/30 07:18:42;;;;;;;5.72;5.32;;;;;;;;;;4148890;28;20042;-63
2023/09/30 07:20:44;;;;;;;7.50;6.97;;;;;;;;;;4142753;28;20041;-63
2023/09/30 07:22:46;;;;;;;6.60;6.20;;;;;;;;;;4149877;28;20038;-64
2023/09/30 07:25:05;;;;;;;6.15;5.75;;;;;;;;;;4142479;28;20045;-63
2023/09/30 07:27:07;;;;;;;7.22;6.72;;;;;;;;;;4136964;28;20054;-63
2023/09/30 07:29:27;;;;;;;6.43;5.93;;;;;;;;;;4149903;28;20073;-63
2023/09/30 07:31:32;;;;;;;5.40;5.03;;;;;;;;;;4139623;28;20068;-63
2023/09/30 07:33:34;;;;;;;5.15;4.97;;;;;;;;;;4148845;28;20049;-63
2023/09/30 07:35:38;;;;;;;5.25;4.97;;;;;;;;;;4147326;28;20053;-63
2023/09/30 07:37:41;;;;;;;7.05;5.00;;;;;;;;;;4148364;28;20053;-63
2023/09/30 07:39:43;;;;;;;7.38;6.63;;;;;;;;;;4149517;28;20069;-63
2023/09/30 07:41:44;;;;;;;5.13;4.90;;;;;;;;;;4148506;28;20037;-63
2023/09/30 07:43:46;;;;;;;12.40;9.27;;;;;;;;;;4149024;28;20048;-63
2023/09/30 07:45:47;;;;;;;9.63;6.87;;;;;;;;;;4144918;28;20117;-63
2023/09/30 07:47:50;;;;;;;14.30;8.20;;;;;;;;;;4146613;28;20732;-63
2023/09/30 07:49:52;;;;;;;18.48;8.25;;;;;;;;;;4148296;28;20038;-63
2023/09/30 07:51:54;;;;;;;7.63;6.97;;;;;;;;;;4147689;28;20084;-63
2023/09/30 07:53:57;;;;;;;7.10;6.20;;;;;;;;;;4149537;28;20285;-63
2023/09/30 07:56:15;;;;;;;5.78;4.80;;;;;;;;;;4143501;28;20565;-63
2023/09/30 07:58:16;;;;;;;3.13;2.90;;;;;;;;;;4143619;28;20490;-63
2023/09/30 08:00:20;;;;;;;4.00;3.80;;;;;;;;;;4149474;28;20042;-64
2023/09/30 08:02:24;;;;;;;3.05;2.90;;;;;;;;;;4149155;28;20121;-63
2023/09/30 08:04:26;;;;;;;6.05;2.20;;;;;;;;;;4142705;28;20041;-62
2023/09/30 08:06:28;;;;;;;2.08;1.98;;;;;;;;;;4134508;28;20078;-63
2023/09/30 08:08:30;;;;;;;1.83;1.70;;;;;;;;;;4138215;28;20043;-63
2023/09/30 08:10:32;;;;;;;2.63;2.53;;;;;;;;;;4147702;28;20113;-63
2023/09/30 08:12:33;;;;;;;4.35;2.50;;;;;;;;;;4149198;28;20064;-63
2023/09/30 08:14:35;;;;;;;5.35;2.40;;;;;;;;;;4149135;28;20105;-63
2023/09/30 08:16:37;;;;;;;6.72;2.97;;;;;;;;;;4149197;28;20445;-63
2023/09/30 08:18:38;;;;;;;2.45;2.35;;;;;;;;;;4142022;28;20124;-63
2023/09/30 08:20:40;;;;;;;2.50;2.40;;;;;;;;;;4142830;28;20521;-63
2023/09/30 08:22:42;;;;;;;3.73;2.10;;;;;;;;;;4149032;28;20449;-63
2023/09/30 08:24:44;;;;;;;2.90;2.75;;;;;;;;;;4148981;28;20296;-63
2023/09/30 08:26:46;;;;;;;2.00;1.90;;;;;;;;;;4145514;28;20068;-64
2023/09/30 08:28:47;;;;;;;2.27;2.10;;;;;;;;;;4154415;28;20069;-63
2023/09/30 08:30:50;;;;;;;1.85;1.75;;;;;;;;;;4162040;28;20330;-63
2023/09/30 08:32:52;;;;;;;2.90;1.48;;;;;;;;;;4148791;28;20061;-63
2023/09/30 08:34:54;;;;;;;2.63;2.30;;;;;;;;;;4141302;28;20049;-63
2023/09/30 08:36:56;;;;;;;2.90;2.17;;;;;;;;;;4147516;28;20044;-63
2023/09/30 08:38:58;;;;;;;2.67;2.58;;;;;;;;;;4146274;28;20567;-63
2023/09/30 08:41:02;;;;;;;2.45;2.25;;;;;;;;;;4148892;28;20104;-63
2023/09/30 08:43:04;;;;;;;4.05;2.38;;;;;;;;;;4148733;28;20482;-63
2023/09/30 08:45:08;;;;;;;2.58;1.50;;;;;;;;;;4148277;28;20124;-63
2023/09/30 08:47:09;;;;;;;2.65;2.00;;;;;;;;;;4148131;28;20050;-63
2023/09/30 08:49:12;;;;;;;;;;;;;;;;;;4138938;28;20092;-63
2023/09/30 08:51:13;;;;;;;3.70;1.73;;;;;;;;;;4139138;28;20019;-64
2023/09/30 08:53:16;;;;;;;1.80;1.70;;;;;;;;;;4137595;28;20043;-63
2023/09/30 08:55:18;;;;;;;1.77;1.67;;;;;;;;;;4140891;28;20070;-63
2023/09/30 08:57:20;;;;;;;1.60;1.50;;;;;;;;;;4142739;28;20050;-63
2023/09/30 08:59:22;;;;;;;2.50;1.50;;;;;;;;;;4148584;28;20042;-62
2023/09/30 09:01:30;;;;;;;4.18;1.10;;;;;;;;;;4156702;28;20099;-62
2023/09/30 09:03:32;;;;;;;6.35;1.63;;;;;;;;;;4162695;28;20044;-62
2023/09/30 09:05:34;;;;;;;1.30;1.10;;;;;;;;;;4164188;28;20493;-62
2023/09/30 09:07:36;;;;;;;2.45;1.30;;;;;;;;;;4151538;28;20057;-62
2023/09/30 09:09:38;;;;;;;1.48;1.27;;;;;;;;;;4147324;28;20073;-62
2023/09/30 09:11:39;;;;;;;4.03;1.40;;;;;;;;;;4145182;28;20611;-62
2023/09/30 09:13:55;;;;;;;1.48;1.38;;;;;;;;;;4148164;28;20045;-62
2023/09/30 09:16:07;;;;;;;1.65;1.40;;;;;;;;;;4147646;28;20041;-62
2023/09/30 09:18:11;;;;;;;2.15;1.00;;;;;;;;;;4145230;28;20077;-62
2023/09/30 09:20:19;;;;;;;2.20;1.20;;;;;;;;;;4148061;28;20069;-62
2023/09/30 09:22:21;;;;;;;3.40;1.10;;;;;;;;;;4148079;28;20072;-62
2023/09/30 09:24:33;;;;;;;1.85;1.00;;;;;;;;;;4148135;28;20084;-62
2023/09/30 09:26:36;;;;;;;3.58;1.38;;;;;;;;;;4147223;28;20042;-62
2023/09/30 09:28:42;;;;;;;1.98;1.30;;;;;;;;;;4147844;28;20046;-63
2023/09/30 09:30:44;;;;;;;4.22;1.10;;;;;;;;;;4148165;28;20066;-62
2023/09/30 09:33:01;;;;;;;1.38;1.10;;;;;;;;;;4146996;28;20724;-62
2023/09/30 09:35:03;;;;;;;5.15;1.27;;;;;;;;;;4147140;28;20070;-62
2023/09/30 09:37:14;;;;;;;1.55;1.10;;;;;;;;;;4131797;28;20479;-62
2023/09/30 09:39:28;;;;;;;7.72;1.42;;;;;;;;;;4131532;28;20137;-62
2023/09/30 09:41:30;;;;;;;6.63;1.25;;;;;;;;;;4130475;28;20078;-62
2023/09/30 09:43:33;;;;;;;4.93;1.20;;;;;;;;;;4145357;28;20042;-62
2023/09/30 09:45:38;;;;;;;1.73;1.15;;;;;;;;;;4146623;28;20504;-62
2023/09/30 09:47:40;;;;;;;1.50;0.90;;;;;;;;;;4147463;28;20565;-62
2023/09/30 09:49:42;;;;;;;1.70;1.02;;;;;;;;;;4147819;28;20120;-62
2023/09/30 09:51:45;;;;;;;4.10;1.50;;;;;;;;;;4139631;28;20038;-62
2023/09/30 09:53:48;;;;;;;2.42;0.90;;;;;;;;;;4147865;28;20041;-62
2023/09/30 09:55:51;;;;;;;3.28;0.95;;;;;;;;;;4145956;28;20041;-62
2023/09/30 09:57:54;;;;;;;6.05;1.05;;;;;;;;;;4147483;28;20065;-62
2023/09/30 09:59:56;;;;;;;7.30;0.93;;;;;;;;;;4144543;28;20410;-63
2023/09/30 10:02:00;;;;;;;5.68;0.90;;;;;;;;;;4146030;28;20088;-62
2023/09/30 10:04:05;;;;;;;0.80;0.80;;;;;;;;;;4146272;28;20053;-62
2023/09/30 10:06:08;;;;;;;0.77;0.77;;;;;;;;;;4147522;28;20038;-62
2023/09/30 10:08:17;;;;;;;0.80;0.80;;;;;;;;;;4144654;28;20046;-62
2023/09/30 10:10:19;;;;;;;0.80;0.80;;;;;;;;;;4146710;28;20494;-62
2023/09/30 10:12:21;;;;;;;0.70;0.70;;;;;;;;;;4147537;28;20103;-63
2023/09/30 10:14:23;;;;;;;;;;;;;;;;;;4147825;28;20046;-62
2023/09/30 10:16:37;;;;;;;1.33;0.70;;;;;;;;;;4145980;28;19925;-62
2023/09/30 10:18:59;;;;;;;1.08;0.90;;;;;;;;;;4147479;28;20494;-63
2023/09/30 10:21:07;;;;;;;2.45;1.25;;;;;;;;;;4146481;28;20418;-62
2023/09/30 10:23:21;;;;;;;0.90;0.90;;;;;;;;;;4147383;28;20128;-63
2023/09/30 10:25:35;;;;;;;3.80;0.60;;;;;;;;;;4146189;28;20030;-62
2023/09/30 10:27:37;;;;;;;0.98;0.70;;;;;;;;;;4144039;28;20059;-62
2023/09/30 10:29:41;;;;;;;0.70;0.60;;;;;;;;;;4159563;28;20041;-62
2023/09/30 10:31:51;;;;;;;1.10;0.70;;;;;;;;;;4163467;28;20505;-63
2023/09/30 10:34:02;;;;;;;0.95;0.73;;;;;;;;;;4163589;28;20057;-63
2023/09/30 10:36:04;;;;;;;0.60;0.60;;;;;;;;;;4158328;28;20044;-62
2023/09/30 10:38:21;;;;;;;0.80;0.80;;;;;;;;;;4147224;28;20471;-63
2023/09/30 10:40:31;;;;;;;2.28;0.70;;;;;;;;;;4147032;28;20037;-62
2023/09/30 10:42:52;;;;;;;0.60;0.60;;;;;;;;;;4146475;28;20065;-63
2023/09/30 10:44:53;;;;;;;0.60;0.60;;;;;;;;;;4132130;28;20034;-63
2023/09/30 10:46:58;;;;;;;0.88;0.82;;;;;;;;;;4140072;28;20041;-64
2023/09/30 10:49:14;;;;;;;0.75;0.75;;;;;;;;;;4145071;28;20034;-62
2023/09/30 10:51:20;;;;;;;0.60;0.60;;;;;;;;;;4146328;28;20096;-62
2023/09/30 10:53:22;;;;;;;0.63;0.63;;;;;;;;;;4141823;28;20042;-63
2023/09/30 10:55:24;;;;;;;0.88;0.65;;;;;;;;;;4147230;28;20116;-63
2023/09/30 10:57:29;;;;;;;3.17;0.70;;;;;;;;;;4147231;28;20581;-63
2023/09/30 10:59:32;;;;;;;0.60;0.60;;;;;;;;;;4147148;28;20100;-63
2023/09/30 11:01:34;;;;;;;0.88;0.60;;;;;;;;;;4146799;28;20476;-63
2023/09/30 11:03:36;;;;;;;0.60;0.60;;;;;;;;;;4135900;28;20041;-62
2023/09/30 11:05:38;;;;;;;1.48;0.57;;;;;;;;;;4130999;28;20038;-62
2023/09/30 11:08:03;;;;;;;0.55;0.55;;;;;;;;;;4130808;28;20061;-63
2023/09/30 11:10:05;;;;;;;0.50;0.50;;;;;;;;;;4131104;28;20072;-62
2023/09/30 11:12:13;;;;;;;0.88;0.50;;;;;;;;;;4132973;28;20066;-62
2023/09/30 11:14:17;;;;;;;0.47;0.47;;;;;;;;;;4137663;28;20034;-62
2023/09/30 11:16:19;;;;;;;2.92;0.50;;;;;;;;;;4145994;28;20437;-63
2023/09/30 11:18:21;;;;;;;2.50;0.40;;;;;;;;;;4146168;28;20053;-63
2023/09/30 11:20:24;;;;;;;1.10;0.40;;;;;;;;;;4146719;28;20049;-62
2023/09/30 11:22:27;;;;;;;0.98;0.55;;;;;;;;;;4140698;28;20038;-63
2023/09/30 11:24:29;;;;;;;0.50;0.50;;;;;;;;;;4139960;28;20502;-62
2023/09/30 11:26:32;;;;;;;0.52;0.52;;;;;;;;;;4142987;28;20124;-63
2023/09/30 11:28:37;;;;;;;0.40;0.40;;;;;;;;;;4151951;28;20485;-63
2023/09/30 11:30:58;;;;;;;0.75;0.50;;;;;;;;;;4149594;28;20034;-62
2023/09/30 11:33:00;;;;;;;2.58;0.55;;;;;;;;;;4133476;28;20104;-62
2023/09/30 11:35:02;;;;;;;0.50;0.50;;;;;;;;;;4133584;28;20475;-62
2023/09/30 11:37:05;;;;;;;0.77;0.40;;;;;;;;;;4144823;28;20445;-62
2023/09/30 11:39:09;;;;;;;0.50;0.50;;;;;;;;;;4149617;28;20041;-63
2023/09/30 11:41:10;;;;;;;0.63;0.60;;;;;;;;;;4149551;28;20072;-62
2023/09/30 11:43:12;;;;;;;0.40;0.40;;;;;;;;;;4149563;28;20348;-62
2023/09/30 11:45:22;;;;;;;0.88;0.50;;;;;;;;;;4149693;28;20050;-63
2023/09/30 11:47:30;;;;;;;1.58;0.45;;;;;;;;;;4148562;28;20049;-63
2023/09/30 11:49:38;;;;;;;0.43;0.40;;;;;;;;;;4146610;28;20398;-63
2023/09/30 11:51:46;;;;;;;0.40;0.40;;;;;;;;;;4149568;28;20046;-63
2023/09/30 11:53:48;;;;;;;1.13;0.47;;;;;;;;;;4149512;28;20449;-63
2023/09/30 11:55:50;;;;;;;0.40;0.40;;;;;;;;;;4149662;28;20488;-62
2023/09/30 11:57:54;;;;;;;1.38;0.50;;;;;;;;;;4149631;28;20038;-63
2023/09/30 11:59:56;;;;;;;0.40;0.40;;;;;;;;;;4149285;28;20410;-62
2023/09/30 12:01:58;;;;;;;0.40;0.40;;;;;;;;;;4149067;28;20054;-63
2023/09/30 12:04:17;;;;;;;0.40;0.40;;;;;;;;;;4149525;28;20125;-62
2023/09/30 12:06:19;;;;;;;0.65;0.65;;;;;;;;;;4145471;28;20034;-62
2023/09/30 12:08:23;;;;;;;0.95;0.50;;;;;;;;;;4141773;28;20141;-63
2023/09/30 12:10:25;;;;;;;1.65;0.52;;;;;;;;;;4137850;28;20125;-63
2023/09/30 12:12:27;;;;;;;0.40;0.40;;;;;;;;;;4149155;28;20094;-63